createdAt,value
2019-05-15T00:02:13.240Z,3.75
2019-05-15T00:04:45.296Z,3.85
2019-05-15T00:07:14.893Z,4.25
2019-05-15T00:09:45.086Z,3.52
2019-05-15T00:12:14.703Z,4.12
2019-05-15T00:14:45.775Z,3.75
2019-05-15T00:17:16.025Z,3.52
2019-05-15T00:19:45.641Z,3.75
2019-05-15T00:22:15.276Z,3.67
2019-05-15T00:24:44.928Z,3.75
2019-05-15T00:27:14.593Z,3.70
2019-05-15T00:29:44.204Z,4.03
2019-05-15T00:32:13.867Z,3.60
2019-05-15T00:34:43.475Z,4.03
2019-05-15T00:37:25.682Z,3.50
2019-05-15T00:40:14.381Z,4.10
2019-05-15T00:42:43.153Z,4.03
2019-05-15T00:45:12.514Z,4.17
2019-05-15T00:47:41.573Z,4.55
2019-05-15T00:50:11.587Z,3.98
2019-05-15T00:52:41.200Z,3.92
2019-05-15T00:55:11.122Z,3.65
2019-05-15T00:57:40.177Z,4.50
2019-05-15T01:00:09.922Z,4.78
2019-05-15T01:02:39.425Z,4.97
2019-05-15T01:05:08.794Z,3.98
2019-05-15T01:07:39.295Z,4.67
2019-05-15T01:10:10.093Z,4.58
2019-05-15T01:12:39.198Z,4.47
2019-05-15T01:15:09.428Z,4.10
2019-05-15T01:17:39.360Z,4.30
2019-05-15T01:20:08.903Z,4.30
2019-05-15T01:22:39.433Z,4.53
2019-05-15T01:25:09.003Z,4.92
2019-05-15T01:27:38.864Z,4.70
2019-05-15T01:30:09.350Z,5.30
2019-05-15T01:32:39.784Z,4.70
2019-05-15T01:35:09.704Z,4.72
2019-05-15T01:37:39.171Z,4.95
2019-05-15T01:40:09.236Z,5.12
2019-05-15T01:42:38.975Z,5.22
2019-05-15T01:45:09.287Z,5.60
2019-05-15T01:47:38.977Z,5.33
2019-05-15T01:50:09.235Z,5.58
2019-05-15T01:52:39.233Z,5.85
2019-05-15T01:55:09.343Z,5.78
2019-05-15T01:57:38.761Z,5.87
2019-05-15T02:00:11.579Z,5.60
2019-05-15T02:02:40.727Z,5.70
2019-05-15T02:05:10.516Z,5.67
2019-05-15T02:07:39.854Z,6.28
2019-05-15T02:10:09.534Z,5.85
2019-05-15T02:12:39.209Z,5.72
2019-05-15T02:15:09.491Z,5.60
2019-05-15T02:17:39.546Z,5.90
2019-05-15T02:20:09.198Z,5.85
2019-05-15T02:22:42.282Z,6.17
2019-05-15T02:25:09.384Z,6.47
2019-05-15T02:27:39.218Z,6.40
2019-05-15T02:30:22.534Z,6.42
2019-05-15T02:32:40.184Z,5.95
2019-05-15T02:35:10.226Z,6.30
2019-05-15T02:37:41.139Z,5.85
2019-05-15T02:40:10.720Z,6.55
2019-05-15T02:42:40.608Z,6.60
2019-05-15T02:45:10.748Z,6.10
2019-05-15T02:47:40.113Z,7.00
2019-05-15T02:50:10.611Z,6.72
2019-05-15T02:52:44.985Z,6.53
2019-05-15T02:55:10.783Z,7.03
2019-05-15T02:57:39.794Z,7.17
2019-05-15T03:00:10.950Z,7.03
2019-05-15T03:02:41.155Z,6.67
2019-05-15T03:05:11.516Z,7.00
2019-05-15T03:07:40.854Z,7.30
2019-05-15T03:10:10.545Z,6.90
2019-05-15T03:12:40.708Z,7.22
2019-05-15T03:15:10.356Z,7.40
2019-05-15T03:17:41.037Z,7.15
2019-05-15T03:20:11.137Z,7.58
2019-05-15T03:22:40.695Z,7.17
2019-05-15T03:25:11.248Z,7.58
2019-05-15T03:27:40.134Z,7.70
2019-05-15T03:30:13.187Z,7.30
2019-05-15T03:32:51.801Z,7.72
2019-05-15T03:35:14.523Z,7.53
2019-05-15T03:37:41.240Z,7.78
2019-05-15T03:40:11.003Z,7.97
2019-05-15T03:42:40.298Z,7.42
2019-05-15T03:45:10.302Z,7.55
2019-05-15T03:47:40.356Z,7.83
2019-05-15T03:50:10.455Z,7.70
2019-05-15T03:52:39.838Z,7.58
2019-05-15T03:55:10.879Z,8.08
2019-05-15T03:57:40.504Z,7.20
2019-05-15T04:00:10.317Z,7.75
2019-05-15T04:02:39.811Z,7.17
2019-05-15T04:05:11.826Z,8.28
2019-05-15T04:07:40.345Z,8.38
2019-05-15T04:10:10.379Z,8.28
2019-05-15T04:12:40.749Z,7.97
2019-05-15T04:15:10.970Z,7.78
2019-05-15T04:17:40.601Z,8.08
2019-05-15T04:20:11.652Z,8.80
2019-05-15T04:22:40.699Z,7.45
2019-05-15T04:25:10.465Z,8.05
2019-05-15T04:27:42.875Z,8.33
2019-05-15T04:30:12.253Z,8.70
2019-05-15T04:32:41.088Z,8.45
2019-05-15T04:35:10.267Z,8.88
2019-05-15T04:37:40.916Z,7.97
2019-05-15T04:40:12.463Z,8.45
2019-05-15T04:42:41.212Z,8.30
2019-05-15T04:45:11.324Z,8.70
2019-05-15T04:47:40.356Z,8.70
2019-05-15T04:50:10.312Z,8.03
2019-05-15T04:52:43.155Z,7.90
2019-05-15T04:55:10.661Z,9.15
2019-05-15T04:57:40.670Z,8.93
2019-05-15T05:00:10.533Z,7.78
2019-05-15T05:02:40.419Z,8.08
2019-05-15T05:05:10.556Z,8.58
2019-05-15T05:07:39.961Z,8.93
2019-05-15T05:10:10.056Z,8.10
2019-05-15T05:12:41.850Z,7.60
2019-05-15T05:15:10.445Z,8.28
2019-05-15T05:17:39.560Z,7.85
2019-05-15T05:20:08.532Z,8.98
2019-05-15T05:22:39.195Z,8.75
2019-05-15T05:25:08.978Z,8.78
2019-05-15T05:27:38.586Z,7.80
2019-05-15T05:30:09.015Z,7.87
2019-05-15T05:32:38.911Z,8.18
2019-05-15T05:35:08.853Z,7.78
2019-05-15T05:37:38.972Z,8.13
2019-05-15T05:40:09.445Z,7.83
2019-05-15T05:42:39.136Z,7.90
2019-05-15T05:45:09.477Z,7.65
2019-05-15T05:47:38.559Z,7.92
2019-05-15T05:50:08.621Z,8.28
2019-05-15T05:52:39.038Z,7.58
2019-05-15T05:55:09.350Z,8.58
2019-05-15T05:57:38.477Z,7.87
2019-05-15T06:00:09.246Z,8.23
2019-05-15T06:02:46.921Z,8.10
2019-05-15T06:05:09.015Z,8.40
2019-05-15T06:07:38.714Z,7.10
2019-05-15T06:10:08.846Z,7.53
2019-05-15T06:12:38.966Z,7.08
2019-05-15T06:15:10.748Z,7.33
2019-05-15T06:17:39.626Z,7.87
2019-05-15T06:20:08.875Z,7.75
2019-05-15T06:22:38.690Z,8.08
2019-05-15T06:25:11.140Z,7.95
2019-05-15T06:27:39.229Z,8.15
2019-05-15T06:30:10.998Z,7.47
2019-05-15T06:32:40.110Z,8.38
2019-05-15T06:35:09.544Z,7.72
2019-05-15T06:37:39.532Z,7.97
2019-05-15T06:40:09.172Z,7.92
2019-05-15T06:42:39.235Z,8.05
2019-05-15T06:45:08.688Z,7.72
2019-05-15T06:47:39.500Z,8.18
2019-05-15T06:50:09.398Z,8.23
2019-05-15T06:52:38.258Z,8.35
2019-05-15T06:55:09.050Z,7.75
2019-05-15T06:57:39.763Z,8.50
2019-05-15T07:00:10.141Z,7.70
2019-05-15T07:02:38.889Z,7.58
2019-05-15T07:05:08.281Z,8.53
2019-05-15T07:07:38.664Z,7.95
2019-05-15T07:10:09.241Z,8.35
2019-05-15T07:12:39.190Z,8.00
2019-05-15T07:15:09.369Z,8.30
2019-05-15T07:17:39.371Z,6.85
2019-05-15T07:20:10.319Z,7.05
2019-05-15T07:22:39.415Z,6.90
2019-05-15T07:25:09.513Z,7.92
2019-05-15T07:27:38.986Z,9.13
2019-05-15T07:30:12.202Z,6.80
2019-05-15T07:32:40.605Z,7.07
2019-05-15T07:35:11.290Z,7.92
2019-05-15T07:37:40.097Z,7.75
2019-05-15T07:40:10.510Z,7.83
2019-05-15T07:42:39.291Z,6.90
2019-05-15T07:45:09.878Z,7.47
2019-05-15T07:47:38.982Z,7.70
2019-05-15T07:50:09.066Z,8.78
2019-05-15T07:52:39.940Z,7.33
2019-05-15T07:55:09.375Z,8.00
2019-05-15T07:57:39.309Z,8.60
2019-05-15T08:00:14.461Z,7.30
2019-05-15T08:02:43.282Z,7.33
2019-05-15T08:05:12.764Z,8.28
2019-05-15T08:07:41.466Z,7.75
2019-05-15T08:10:11.032Z,7.80
2019-05-15T08:12:40.709Z,8.18
2019-05-15T08:15:12.176Z,7.40
2019-05-15T08:20:13.561Z,6.50
2019-05-15T08:22:45.773Z,6.92
2019-05-15T08:25:30.165Z,6.17
2019-05-15T08:26:05.637Z,6.60
2019-05-15T08:27:48.277Z,6.45
2019-05-15T08:30:18.379Z,6.15
2019-05-15T08:32:51.015Z,5.75
2019-05-15T08:35:19.189Z,5.70
2019-05-15T08:37:49.196Z,4.33
2019-05-15T08:40:18.342Z,4.40
2019-05-15T08:42:57.484Z,3.77
2019-05-15T08:45:18.901Z,3.22
2019-05-15T08:47:49.262Z,3.98
2019-05-15T08:50:20.205Z,3.50
2019-05-15T08:52:48.934Z,3.08
2019-05-15T08:55:20.037Z,3.15
2019-05-15T08:57:55.716Z,3.05
2019-05-15T09:00:19.228Z,3.30
2019-05-15T09:02:48.834Z,2.67
2019-05-15T09:05:18.791Z,3.08
2019-05-15T09:07:48.724Z,2.87
2019-05-15T09:10:18.401Z,4.40
2019-05-15T09:12:50.194Z,3.10
2019-05-15T09:15:18.583Z,2.50
2019-05-15T09:17:48.781Z,2.37
2019-05-15T09:20:19.671Z,2.37
2019-05-15T09:22:49.129Z,2.77
2019-05-15T09:25:19.285Z,2.87
2019-05-15T09:27:48.952Z,2.83
2019-05-15T09:30:18.371Z,3.33
2019-05-15T09:32:48.351Z,3.02
2019-05-15T09:35:21.405Z,3.00
2019-05-15T09:37:50.524Z,3.37
2019-05-15T09:40:19.628Z,3.12
2019-05-15T09:42:48.848Z,3.25
2019-05-15T09:45:18.657Z,3.55
2019-05-15T09:47:48.311Z,3.33
2019-05-15T09:50:19.311Z,4.00
2019-05-15T09:52:50.173Z,3.67
2019-05-15T09:55:19.501Z,3.80
2019-05-15T09:57:49.199Z,3.92
2019-05-15T10:00:19.167Z,3.60
2019-05-15T10:02:48.607Z,4.00
2019-05-15T10:05:19.937Z,4.40
2019-05-15T10:07:48.646Z,4.55
2019-05-15T10:10:19.255Z,7.78
2019-05-15T10:12:49.450Z,4.28
2019-05-15T10:15:20.502Z,3.50
2019-05-15T10:17:51.212Z,2.92
2019-05-15T10:20:20.526Z,3.12
2019-05-15T10:22:49.257Z,3.40
2019-05-15T10:25:18.979Z,4.03
2019-05-15T10:27:48.782Z,3.27
2019-05-15T10:30:19.034Z,3.45
2019-05-15T10:32:48.729Z,3.30
2019-05-15T10:35:25.720Z,3.70
2019-05-15T10:37:48.861Z,3.00
2019-05-15T10:40:20.411Z,2.85
2019-05-15T10:42:49.672Z,2.55
2019-05-15T10:45:19.392Z,3.27
2019-05-15T10:47:49.575Z,2.62
2019-05-15T10:50:19.252Z,2.98
2019-05-15T10:52:48.919Z,3.10
2019-05-15T10:55:19.038Z,2.92
2019-05-15T10:57:48.473Z,2.70
2019-05-15T11:00:19.450Z,2.80
2019-05-15T11:02:49.005Z,3.45
2019-05-15T11:05:18.461Z,3.47
2019-05-15T11:07:48.205Z,3.30
2019-05-15T11:10:18.585Z,2.95
2019-05-15T11:12:47.544Z,3.67
2019-05-15T11:15:18.386Z,2.87
2019-05-15T11:17:49.256Z,3.40
2019-05-15T11:20:18.966Z,3.08
2019-05-15T11:22:49.983Z,3.85
2019-05-15T11:25:18.351Z,3.27
2019-05-15T11:27:48.363Z,3.83
2019-05-15T11:30:19.210Z,3.35
2019-05-15T11:32:48.711Z,4.08
2019-05-15T11:35:18.876Z,4.03
2019-05-15T11:37:56.088Z,3.58
2019-05-15T11:40:18.985Z,3.25
2019-05-15T11:42:48.719Z,3.62
2019-05-15T11:45:18.737Z,3.20
2019-05-15T11:47:48.275Z,3.00
2019-05-15T11:50:20.606Z,3.80
2019-05-15T11:53:08.707Z,3.17
2019-05-15T11:55:38.730Z,2.77
2019-05-15T11:58:09.271Z,3.17
2019-05-15T12:00:38.509Z,3.02
2019-05-15T12:03:09.019Z,2.83
2019-05-15T12:05:38.771Z,2.70
2019-05-15T12:08:09.067Z,2.75
2019-05-15T12:10:38.907Z,2.70
2019-05-15T12:13:09.755Z,3.25
2019-05-15T12:15:38.789Z,3.58
2019-05-15T12:18:08.921Z,2.65
2019-05-15T12:20:38.921Z,2.90
2019-05-15T12:23:08.918Z,2.62
2019-05-15T12:25:39.462Z,2.15
2019-05-15T12:28:09.700Z,2.37
2019-05-15T12:30:40.287Z,2.40
2019-05-15T12:33:09.927Z,2.47
2019-05-15T12:35:40.016Z,2.55
2019-05-15T12:38:10.338Z,3.60
2019-05-15T13:00:42.716Z,1.70
2019-05-15T13:03:11.378Z,2.02
2019-05-15T13:05:40.235Z,1.40
2019-05-15T13:08:08.924Z,1.77
2019-05-15T13:10:38.590Z,2.02
2019-05-15T13:13:09.509Z,1.52
2019-05-15T13:15:41.067Z,1.65
2019-05-15T13:18:14.214Z,1.90
2019-05-15T13:20:41.238Z,1.90
2019-05-15T13:23:10.026Z,2.22
2019-05-15T13:25:39.641Z,1.90
2019-05-15T13:28:09.172Z,1.50
2019-05-15T13:30:41.282Z,2.02
2019-05-15T13:33:10.034Z,1.70
2019-05-15T13:35:39.242Z,1.60
2019-05-15T13:38:09.948Z,1.60
2019-05-15T13:40:42.162Z,1.80
2019-05-15T13:43:08.786Z,1.57
2019-05-15T13:45:38.665Z,1.80
2019-05-15T13:48:08.801Z,1.87
2019-05-15T13:50:41.179Z,1.98
2019-05-15T13:53:11.048Z,1.70
2019-05-15T13:55:42.711Z,1.80
2019-05-15T13:58:10.602Z,1.32
2019-05-15T14:00:39.810Z,1.95
2019-05-15T14:03:09.216Z,1.70
2019-05-15T14:05:38.585Z,1.70
2019-05-15T14:08:07.664Z,1.55
2019-05-15T14:10:38.627Z,1.50
2019-05-15T14:13:06.997Z,1.80
2019-05-15T14:15:38.020Z,1.12
2019-05-15T14:18:08.392Z,1.70
2019-05-15T14:20:38.670Z,1.40
2019-05-15T14:23:08.620Z,1.80
2019-05-15T14:25:38.895Z,1.62
2019-05-15T14:28:08.844Z,1.40
2019-05-15T14:30:37.935Z,1.65
2019-05-15T14:33:08.485Z,1.47
2019-05-15T14:35:38.009Z,2.05
2019-05-15T14:38:10.088Z,1.42
2019-05-15T14:40:37.549Z,1.65
2019-05-15T14:43:08.961Z,1.57
2019-05-15T14:45:38.628Z,1.55
2019-05-15T14:48:08.841Z,1.55
2019-05-15T14:50:38.444Z,1.70
2019-05-15T14:53:09.553Z,2.17
2019-05-15T14:55:44.095Z,1.60
2019-05-15T14:58:08.648Z,1.50
2019-05-15T15:00:41.084Z,1.52
2019-05-15T15:03:09.824Z,1.62
2019-05-15T15:05:38.825Z,1.65
2019-05-15T15:08:20.345Z,2.05
2019-05-15T15:10:38.632Z,1.50
2019-05-15T15:13:09.243Z,1.35
2019-05-15T15:15:38.162Z,1.20
2019-05-15T15:18:08.265Z,1.82
2019-05-15T15:20:38.123Z,1.62
2019-05-15T15:23:08.589Z,1.70
2019-05-15T15:25:39.778Z,1.60
2019-05-15T15:28:08.582Z,1.52
2019-05-15T15:30:38.499Z,1.62
2019-05-15T15:33:08.539Z,1.70
2019-05-15T15:35:38.353Z,1.70
2019-05-15T15:38:12.700Z,1.70
2019-05-15T15:40:38.901Z,2.17
2019-05-15T15:43:09.371Z,1.70
2019-05-15T15:45:39.335Z,1.55
2019-05-15T15:48:08.607Z,1.90
2019-05-15T15:50:38.299Z,1.60
2019-05-15T15:53:08.814Z,2.00
2019-05-15T15:55:38.551Z,1.85
2019-05-15T15:58:08.841Z,1.80
2019-05-15T16:00:38.497Z,2.00
2019-05-15T16:03:08.478Z,1.90
2019-05-15T16:05:38.444Z,1.67
2019-05-15T16:08:10.414Z,1.92
2019-05-15T16:10:39.135Z,2.50
2019-05-15T16:13:09.204Z,1.92
2019-05-15T16:15:38.627Z,1.72
2019-05-15T16:18:08.924Z,1.85
2019-05-15T16:20:39.808Z,1.90
2019-05-15T16:23:08.945Z,1.95
2019-05-15T16:25:38.543Z,2.27
2019-05-15T16:28:08.773Z,2.20
2019-05-15T16:30:50.354Z,2.17
2019-05-15T16:33:09.701Z,2.10
2019-05-15T16:35:38.811Z,2.20
2019-05-15T16:38:09.334Z,2.10
2019-05-15T16:40:38.414Z,2.00
2019-05-15T16:43:07.287Z,2.22
2019-05-15T16:45:38.491Z,1.90
2019-05-15T16:48:09.472Z,2.72
2019-05-15T16:50:38.319Z,2.40
2019-05-15T16:53:09.142Z,2.35
2019-05-15T16:55:38.442Z,2.75
2019-05-15T16:58:09.318Z,2.58
2019-05-15T17:00:38.516Z,2.42
2019-05-15T17:03:14.413Z,2.52
2019-05-15T17:05:38.775Z,2.55
2019-05-15T17:08:09.057Z,2.08
2019-05-15T17:10:38.759Z,1.87
2019-05-15T17:13:08.728Z,2.50
2019-05-15T17:15:38.419Z,2.67
2019-05-15T17:18:08.909Z,2.20
2019-05-15T17:20:37.857Z,2.45
2019-05-15T17:23:08.620Z,2.40
2019-05-15T17:25:38.246Z,2.25
2019-05-15T17:28:09.168Z,2.42
2019-05-15T17:30:38.247Z,2.08
2019-05-15T17:33:07.455Z,2.33
2019-05-15T17:35:38.062Z,1.98
2019-05-15T17:38:06.525Z,2.05
2019-05-15T17:40:37.438Z,2.33
2019-05-15T17:43:05.724Z,2.90
2019-05-15T17:45:34.799Z,2.20
2019-05-15T17:48:03.445Z,2.20
2019-05-15T17:50:45.038Z,2.60
2019-05-15T17:53:02.565Z,2.40
2019-05-15T17:55:31.305Z,2.40
2019-05-15T17:58:01.183Z,2.58
2019-05-15T18:00:30.469Z,2.30
2019-05-15T18:02:59.384Z,2.17
2019-05-15T18:05:28.440Z,2.15
2019-05-15T18:07:58.414Z,3.10
2019-05-15T18:10:27.985Z,2.70
2019-05-15T18:12:58.355Z,2.22
2019-05-15T18:15:27.393Z,2.40
2019-05-15T18:17:58.955Z,4.78
2019-05-15T18:20:29.851Z,3.00
2019-05-15T18:22:59.194Z,3.37
2019-05-15T18:25:28.258Z,2.65
2019-05-15T18:27:59.228Z,2.65
2019-05-15T18:30:28.120Z,2.27
2019-05-15T18:32:58.721Z,6.22
2019-05-15T18:35:29.539Z,4.65
2019-05-15T18:37:59.081Z,4.33
2019-05-15T18:40:28.226Z,3.70
2019-05-15T18:42:59.294Z,3.35
2019-05-15T18:45:29.059Z,2.40
2019-05-15T18:47:58.647Z,2.62
2019-05-15T18:50:28.384Z,3.00
2019-05-15T18:52:58.355Z,2.20
2019-05-15T18:55:27.500Z,1.85
2019-05-15T18:57:58.308Z,3.83
2019-05-15T19:00:29.183Z,3.42
2019-05-15T19:02:59.490Z,4.00
2019-05-15T19:05:28.104Z,3.05
2019-05-15T19:07:57.920Z,4.50
2019-05-15T19:10:28.230Z,2.50
2019-05-15T19:12:58.257Z,4.15
2019-05-15T19:15:28.635Z,2.50
2019-05-15T19:17:58.573Z,2.33
2019-05-15T19:20:28.099Z,2.52
2019-05-15T19:22:59.012Z,2.52
2019-05-15T19:25:28.650Z,2.50
2019-05-15T19:27:57.821Z,2.80
2019-05-15T19:30:28.776Z,1.90
2019-05-15T19:32:58.601Z,2.08
2019-05-15T19:35:28.114Z,1.90
2019-05-15T19:37:58.512Z,2.22
2019-05-15T19:40:28.394Z,2.10
2019-05-15T19:42:59.019Z,2.20
2019-05-15T19:45:28.329Z,2.50
2019-05-15T19:47:58.710Z,1.80
2019-05-15T19:50:28.799Z,2.72
2019-05-15T19:52:59.061Z,1.85
2019-05-15T19:55:28.294Z,2.05
2019-05-15T19:57:58.766Z,2.10
2019-05-15T20:00:28.573Z,2.50
2019-05-15T20:02:58.098Z,2.27
2019-05-15T20:05:29.014Z,2.62
2019-05-15T20:07:58.874Z,2.15
2019-05-15T20:10:29.302Z,2.22
2019-05-15T20:12:59.763Z,2.10
2019-05-15T20:15:28.780Z,2.00
2019-05-15T20:17:58.065Z,2.20
2019-05-15T20:20:28.364Z,2.20
2019-05-15T20:22:59.816Z,1.87
2019-05-15T20:25:28.358Z,2.05
2019-05-15T20:27:57.117Z,2.40
2019-05-15T20:30:28.387Z,2.12
2019-05-15T20:32:58.369Z,1.90
2019-05-15T20:35:28.275Z,1.87
2019-05-15T20:37:58.139Z,2.00
2019-05-15T20:40:27.195Z,2.02
2019-05-15T20:42:55.910Z,2.00
2019-05-15T20:45:24.663Z,2.20
2019-05-15T20:47:53.408Z,4.03
2019-05-15T20:50:22.191Z,1.80
2019-05-15T20:52:50.900Z,2.05
2019-05-15T20:55:19.648Z,2.55
2019-05-15T20:57:50.516Z,2.62
2019-05-15T21:00:19.554Z,2.20
2019-05-15T21:02:49.290Z,2.27
2019-05-15T21:05:18.882Z,2.30
2019-05-15T21:07:49.327Z,2.20
2019-05-15T21:10:21.532Z,2.25
2019-05-15T21:12:51.712Z,2.62
2019-05-15T21:15:21.711Z,2.95
2019-05-15T21:17:57.561Z,2.58
2019-05-15T21:20:22.456Z,2.22
2019-05-15T21:22:52.094Z,2.17
2019-05-15T21:25:22.418Z,2.35
2019-05-15T21:27:52.921Z,2.17
2019-05-15T21:30:22.808Z,2.33
2019-05-15T21:32:53.170Z,2.60
2019-05-15T21:35:23.001Z,2.27
2019-05-15T21:37:52.516Z,2.62
2019-05-15T21:40:22.781Z,2.08
2019-05-15T21:42:53.239Z,2.35
2019-05-15T21:45:22.754Z,2.00
2019-05-15T21:47:52.274Z,2.37
2019-05-15T21:50:22.327Z,2.37
2019-05-15T21:52:52.177Z,2.33
2019-05-15T21:55:21.358Z,2.22
2019-05-15T21:57:50.872Z,2.20
2019-05-15T22:00:30.744Z,2.22
2019-05-15T22:03:00.310Z,2.20
2019-05-15T22:05:31.126Z,2.22
2019-05-15T22:08:01.516Z,1.90
2019-05-15T22:10:31.913Z,2.25
2019-05-15T22:13:02.599Z,2.10
2019-05-15T22:15:32.970Z,2.60
2019-05-15T22:18:02.576Z,1.98
2019-05-15T22:20:31.468Z,2.27
2019-05-15T22:23:00.172Z,2.12
2019-05-15T22:25:28.908Z,1.90
2019-05-15T22:27:58.081Z,2.02
2019-05-15T22:30:29.990Z,1.72
2019-05-15T22:32:58.740Z,2.30
2019-05-15T22:35:29.354Z,1.87
2019-05-15T22:37:58.518Z,2.40
2019-05-15T22:40:29.041Z,2.08
2019-05-15T22:42:59.273Z,2.15
2019-05-15T22:45:28.771Z,2.20
2019-05-15T22:47:58.555Z,2.42
2019-05-15T22:50:28.145Z,2.10
2019-05-15T22:52:58.642Z,2.42
2019-05-15T22:55:28.994Z,2.20
2019-05-15T22:57:58.675Z,2.22
2019-05-15T23:00:28.924Z,2.70
2019-05-15T23:02:58.281Z,2.20
2019-05-15T23:05:30.997Z,2.08
2019-05-15T23:07:58.914Z,2.15
2019-05-15T23:10:29.249Z,2.40
2019-05-15T23:12:58.556Z,2.40
2019-05-15T23:15:28.077Z,2.00
2019-05-15T23:17:58.340Z,2.10
2019-05-15T23:20:28.559Z,1.95
2019-05-15T23:22:58.672Z,2.52
2019-05-15T23:25:29.055Z,2.20
2019-05-15T23:27:58.474Z,1.98
2019-05-15T23:30:28.762Z,3.08
2019-05-15T23:32:58.428Z,2.50
2019-05-15T23:35:35.417Z,2.47
2019-05-15T23:37:58.354Z,2.60
2019-05-15T23:40:28.857Z,2.22
2019-05-15T23:42:57.797Z,2.85
2019-05-15T23:45:28.844Z,2.70
2019-05-15T23:47:58.011Z,2.60
2019-05-15T23:50:28.831Z,2.60
2019-05-15T23:52:58.428Z,2.90
2019-05-15T23:55:28.523Z,2.62
2019-05-15T23:57:58.477Z,2.87
